Time;durP1;ratioP1;P1;durP2;ratioP2;P2;SDS_P1;SDS_P2;PMS_P1;PMS_P2;Temp;Humidity;BMP_temperature;BMP_pressure;BME280_temperature;BME280_humidity;BME280_pressure;Samples;Min_cycle;Max_cycle;Signal;HPM_P1;HPM_P2
2022/06/03 00:01:33;;;;;;;3.35;1.30;;;19.10;48.40;;;19.20;43.38;100532.84;5024262;28;20133;-77
2022/06/03 00:04:15;;;;;;;4.15;1.20;;;19.00;48.30;;;19.16;43.47;100532.19;5021892;28;20041;-77
2022/06/03 00:07:31;;;;;;;1.60;1.25;;;19.00;48.50;;;19.15;43.78;100530.47;5020622;28;20049;-77
2022/06/03 00:10:17;;;;;;;3.10;1.45;;;18.90;48.50;;;19.12;43.65;100533.28;5024007;28;20049;-78
2022/06/03 00:13:14;;;;;;;3.47;0.98;;;18.90;48.60;;;19.10;43.58;100527.19;5021219;28;20060;-77
2022/06/03 00:16:07;;;;;;;2.75;1.20;;;18.90;48.50;;;19.03;44.06;100520.50;5006166;28;20050;-78
2022/06/03 00:19:13;;;;;;;2.83;1.17;;;18.80;48.70;;;19.03;44.07;100523.16;5025326;28;20049;-78
2022/06/03 00:21:53;;;;;;;1.83;1.10;;;18.80;48.80;;;18.96;43.87;100514.63;5024533;28;20056;-77
2022/06/03 00:24:53;;;;;;;2.22;1.27;;;18.80;48.80;;;19.03;43.83;100517.84;5022062;28;20053;-78
2022/06/03 00:27:47;;;;;;;;;;;17.70;48.30;;;18.97;43.96;100511.88;5025227;28;20437;-76
2022/06/03 00:30:48;;;;;;;1.40;1.10;;;18.70;48.80;;;18.83;45.19;100514.47;5020546;28;20036;-78
2022/06/03 00:33:30;;;;;;;1.60;1.10;;;18.70;49.00;;;18.83;45.05;100517.13;5020828;28;20041;-78
2022/06/03 00:36:28;;;;;;;2.53;1.10;;;18.70;49.20;;;18.79;45.26;100523.56;5008634;28;20045;-78
2022/06/03 00:39:28;;;;;;;3.13;0.98;;;18.60;49.30;;;18.62;46.66;100522.72;5022648;28;20132;-78
2022/06/03 00:42:27;;;;;;;1.58;1.02;;;18.60;49.70;;;18.51;47.37;100531.31;5024521;28;20156;-77
2022/06/03 00:45:45;;;;;;;1.60;1.38;;;18.50;50.00;;;18.50;48.91;100534.06;5037202;28;20041;-78
2022/06/03 00:48:31;;;;;;;1.90;1.30;;;18.40;50.50;;;18.36;49.74;100519.69;5025237;28;20056;-78
2022/06/03 00:51:16;;;;;;;1.45;1.35;;;18.30;50.70;;;18.27;50.36;100533.50;5021519;28;20041;-78
2022/06/03 00:53:58;;;;;;;2.30;1.30;;;18.30;50.70;;;18.16;51.79;100538.53;5023172;28;20049;-78
2022/06/03 00:56:46;;;;;;;2.78;1.10;;;18.20;51.10;;;18.12;52.07;100536.03;5024206;28;20414;-78
2022/06/03 00:59:41;;;;;;;2.08;1.33;;;18.10;51.20;;;18.10;51.97;100540.59;5022391;28;20052;-78
2022/06/03 01:02:41;;;;;;;1.92;1.17;;;18.00;51.10;;;18.05;51.99;100539.97;5020269;28;20107;-78
2022/06/03 01:05:33;;;;;;;2.15;1.45;;;18.00;51.20;;;17.98;54.70;100533.19;5014202;28;20537;-78
2022/06/03 01:08:20;;;;;;;1.75;1.30;;;18.00;51.80;;;17.95;54.40;100536.03;5024868;28;20068;-77
2022/06/03 01:10:59;;;;;;;1.55;1.30;;;17.90;51.90;;;17.76;59.90;100534.34;5007395;28;20957;-77
2022/06/03 01:13:41;;;;;;;3.05;1.60;;;17.80;52.70;;;17.75;60.17;100540.59;5023604;28;20041;-78
2022/06/03 01:16:32;;;;;;;1.50;1.40;;;17.80;52.90;;;17.81;59.40;100542.94;5024628;28;20045;-78
2022/06/03 01:19:38;;;;;;;2.88;1.80;;;17.70;52.90;;;17.65;59.85;100540.22;5022635;28;20050;-79
2022/06/03 01:22:33;;;;;;;4.00;1.58;;;17.70;53.20;;;17.62;61.80;100535.03;5016030;28;20056;-79
2022/06/03 01:25:40;;;;;;;2.05;1.38;;;17.60;53.30;;;17.65;60.63;100542.00;5015109;28;20572;-78
2022/06/03 01:28:32;;;;;;;3.40;1.50;;;17.50;53.20;;;17.54;61.82;100545.22;5021688;28;20430;-78
2022/06/03 01:31:23;;;;;;;3.88;1.45;;;17.50;53.60;;;17.47;60.60;100544.66;5023940;28;20025;-77
2022/06/03 01:34:18;;;;;;;2.08;1.25;;;17.40;53.30;;;17.47;58.44;100544.66;5036325;28;20049;-78
2022/06/03 01:37:09;;;;;;;1.65;1.48;;;17.40;52.90;;;17.39;58.16;100544.16;5024163;28;20057;-77
2022/06/03 01:40:28;;;;;;;2.00;1.48;;;17.40;53.00;;;17.43;58.29;100545.75;5018904;28;20046;-78
2022/06/03 01:43:33;;;;;;;1.50;1.27;;;17.30;53.20;;;17.32;59.85;100546.25;5024193;28;20041;-77
2022/06/03 01:46:28;;;;;;;2.08;1.38;;;17.30;53.20;;;17.12;65.60;100541.94;5024688;28;20486;-76
2022/06/03 01:49:08;;;;;;;1.88;1.65;;;17.20;54.40;;;17.15;65.62;100549.78;5038483;28;20053;-76
2022/06/03 01:51:44;;;;;;;1.10;1.05;;;17.10;54.40;;;17.02;65.31;100552.16;5022063;28;20526;-76
2022/06/03 01:54:48;;;;;;;4.70;1.33;;;17.10;54.40;;;17.08;62.89;100556.31;5021970;28;21350;-77
2022/06/03 01:57:24;;;;;;;1.85;1.50;;;17.10;54.20;;;17.10;61.19;100562.44;5021204;28;20056;-76
2022/06/03 02:00:22;;;;;;;2.53;1.30;;;17.00;54.10;;;17.11;62.08;100543.72;5022903;28;20766;-76
2022/06/03 02:03:31;;;;;;;3.97;1.77;;;17.00;54.40;;;16.86;65.77;100544.03;5021435;28;20105;-77
2022/06/03 02:07:06;;;;;;;3.70;1.40;;;16.90;54.70;;;16.69;71.33;100543.03;5011557;28;20143;-77
2022/06/03 02:10:14;;;;;;;1.98;1.77;;;16.90;55.70;;;16.78;71.36;100540.84;5016677;28;20056;-77
2022/06/03 02:13:15;;;;;;;1.70;1.40;;;16.80;56.30;;;16.85;70.98;100535.19;5010143;28;20053;-76
2022/06/03 02:16:00;;;;;;;1.98;1.55;;;16.80;56.80;;;16.76;73.70;100532.09;5024452;28;20442;-75
2022/06/03 02:19:04;;;;;;;2.95;1.60;;;16.70;57.30;;;16.50;77.39;100532.41;4994788;28;20057;-77
2022/06/03 02:22:43;;;;;;;1.77;1.60;;;16.60;58.00;;;16.40;75.94;100531.97;5014908;28;20049;-76
2022/06/03 02:25:59;;;;;;;1.40;1.30;;;16.50;58.30;;;16.45;75.30;100535.25;4961204;28;20050;-75
2022/06/03 02:32:23;;;;;;;2.55;1.35;;;16.40;59.30;;;16.29;81.03;100523.63;5016217;28;20524;-76
2022/06/03 02:34:58;;;;;;;1.70;1.42;;;16.30;60.80;;;16.23;81.93;100518.59;5001136;28;20857;-77
2022/06/03 02:38:08;;;;;;;2.47;1.50;;;16.20;63.40;;;16.21;80.70;100531.06;5016379;28;20124;-77
2022/06/03 02:41:26;;;;;;;1.98;1.63;;;16.20;62.50;;;16.14;77.36;100530.50;5018173;28;20041;-77
2022/06/03 02:44:00;;;;;;;6.13;1.60;;;16.20;62.50;;;16.16;73.62;100534.81;4989373;28;20080;-75
2022/06/03 02:46:46;;;;;;;1.50;1.35;;;16.10;61.60;;;16.14;73.37;100535.81;5008921;28;20128;-77
2022/06/03 02:50:15;;;;;;;4.07;1.40;;;16.20;62.00;;;16.14;71.92;100533.16;5031646;28;20067;-76
2022/06/03 02:53:33;;;;;;;1.88;1.30;;;16.10;61.90;;;16.03;76.26;100528.31;5017505;28;20068;-76
2022/06/03 02:56:37;;;;;;;1.48;1.35;;;16.10;62.50;;;16.00;80.61;100525.78;4996565;28;20061;-75
2022/06/03 02:59:38;;;;;;;4.28;1.60;;;16.00;65.00;;;16.00;80.07;100531.97;5017031;28;20041;-76
2022/06/03 03:02:49;;;;;;;5.43;1.42;;;16.00;66.10;;;15.91;82.22;100536.81;4999879;28;20064;-77
2022/06/03 03:05:41;;;;;;;3.78;1.67;;;16.00;67.30;;;15.92;78.75;100543.84;5015305;28;20045;-76
2022/06/03 03:08:56;;;;;;;1.55;1.30;;;15.90;66.60;;;15.96;75.68;100545.44;5016207;28;20057;-76
2022/06/03 03:12:03;;;;;;;2.17;1.48;;;15.90;66.50;;;15.86;76.33;100537.84;5016922;28;20052;-76
2022/06/03 03:14:43;;;;;;;1.83;1.50;;;15.90;66.80;;;15.89;76.64;100534.22;5000592;28;20050;-76
2022/06/03 03:17:42;;;;;;;2.53;1.50;;;15.90;67.40;;;15.95;81.02;100530.44;5018552;28;20045;-76
2022/06/03 03:20:34;;;;;;;1.73;1.52;;;15.80;69.20;;;15.92;84.00;100535.88;5016243;28;20073;-75
2022/06/03 03:23:29;;;;;;;4.70;1.98;;;15.80;71.30;;;15.81;90.31;100531.88;5027047;28;20060;-77
2022/06/03 03:26:07;;;;;;;2.67;1.90;;;15.80;73.80;;;15.81;91.83;100526.56;5022027;28;20050;-76
2022/06/03 03:28:48;;;;;;;2.75;2.08;;;15.80;75.40;;;15.73;98.68;100526.03;5022211;28;20053;-76
2022/06/03 03:31:42;;;;;;;2.10;1.90;;;16.80;79.00;;;15.77;100.00;100538.25;5019852;28;20052;-76
2022/06/03 03:34:38;;;;;;;4.07;2.20;;;15.70;81.50;;;15.73;100.00;100537.50;5020985;28;20045;-76
2022/06/03 03:37:29;;;;;;;3.10;2.40;;;15.70;83.70;;;15.71;100.00;100533.22;5019013;28;20041;-76
2022/06/03 03:40:37;;;;;;;4.20;2.10;;;15.70;85.70;;;16.02;100.00;100535.41;5020924;28;20392;-75
2022/06/03 03:43:48;;;;;;;4.88;2.65;;;15.80;86.70;;;15.87;100.00;100528.97;5023182;28;20045;-75
2022/06/03 03:46:58;;;;;;;6.72;2.70;;;15.90;89.30;;;15.84;100.00;100533.53;5017613;28;20033;-75
2022/06/03 03:49:49;;;;;;;3.83;2.13;;;15.80;90.20;;;15.79;100.00;100531.06;5030333;28;20051;-77
2022/06/03 03:53:31;;;;;;;4.75;2.22;;;15.80;90.80;;;15.69;100.00;100530.59;4987208;28;20059;-79
2022/06/03 03:56:40;;;;;;;4.43;2.35;;;15.70;91.50;;;15.74;100.00;100527.78;4997956;28;20088;-78
2022/06/03 03:59:35;;;;;;;4.13;3.00;;;15.70;91.70;;;15.70;100.00;100519.06;5029437;28;20088;-77
2022/06/03 04:02:29;;;;;;;2.13;1.80;;;15.60;92.00;;;15.74;100.00;100519.81;5028464;28;20050;-77
2022/06/03 04:05:41;;;;;;;3.25;2.58;;;15.70;91.70;;;15.83;100.00;100522.03;5022336;28;20065;-77
2022/06/03 04:08:17;;;;;;;2.85;2.42;;;15.70;91.70;;;15.85;100.00;100519.34;5018874;28;20046;-75
2022/06/03 04:11:17;;;;;;;5.88;2.35;;;15.80;91.50;;;15.85;100.00;100517.56;5018553;28;20049;-74
2022/06/03 04:14:24;;;;;;;2.70;2.17;;;15.80;91.70;;;15.96;100.00;100516.25;5016724;28;20061;-74
2022/06/03 04:17:12;;;;;;;7.53;2.70;;;15.80;91.30;;;16.00;100.00;100516.03;5019002;28;20069;-75
2022/06/03 04:19:51;;;;;;;1.80;1.70;;;15.80;91.00;;;16.09;97.84;100512.09;5018039;28;20042;-77
2022/06/03 04:22:55;;;;;;;4.32;1.60;;;15.90;90.50;;;16.16;91.39;100502.97;5025277;28;20687;-77
2022/06/03 04:25:43;;;;;;;2.15;1.73;;;15.90;89.60;;;16.22;88.82;100507.09;5024260;28;20045;-76
2022/06/03 04:28:37;;;;;;;1.73;1.50;;;16.00;88.30;;;16.27;85.18;100507.78;5015212;28;20430;-77
2022/06/03 04:31:44;;;;;;;1.77;1.55;;;16.10;87.50;;;16.36;80.55;100509.16;5025933;28;20038;-77
2022/06/03 04:34:51;;;;;;;2.53;1.73;;;16.10;85.90;;;16.36;81.04;100519.75;5019117;28;20071;-75
2022/06/03 04:38:18;;;;;;;3.88;1.40;;;16.20;85.70;;;16.33;74.56;100503.97;5021484;28;20057;-74
2022/06/03 04:41:12;;;;;;;1.60;1.45;;;16.20;84.10;;;16.45;75.11;100506.03;4966939;28;20049;-74
2022/06/03 04:44:15;;;;;;;1.70;1.42;;;16.20;83.60;;;16.53;71.92;100504.84;4997867;28;20034;-75
2022/06/03 04:47:26;;;;;;;2.72;2.20;;;16.30;83.00;;;16.55;73.26;100514.47;4972981;28;20110;-75
2022/06/03 04:50:27;;;;;;;1.88;1.50;;;16.40;82.70;;;16.59;69.76;100515.16;4985399;28;20096;-75
2022/06/03 04:53:21;;;;;;;2.13;1.40;;;16.40;81.80;;;16.65;66.52;100508.69;4996010;28;20717;-74
2022/06/03 04:56:38;;;;;;;1.50;1.17;;;16.40;80.70;;;16.66;66.32;100506.00;4994569;28;20503;-75
2022/06/03 04:59:49;;;;;;;1.85;1.40;;;16.40;80.20;;;16.63;69.15;100511.44;4971702;28;20061;-75
2022/06/03 05:02:28;;;;;;;1.27;1.17;;;16.40;80.50;;;16.67;66.52;100510.38;4944815;28;20047;-73
2022/06/03 05:05:16;;;;;;;1.92;1.30;;;16.50;79.90;;;16.67;67.38;100507.72;4943503;28;20059;-73
2022/06/03 05:09:00;;;;;;;2.13;1.73;;;16.50;79.60;;;16.72;64.16;100515.47;4981622;28;20216;-74
2022/06/03 05:12:28;;;;;;;3.78;1.70;;;16.50;78.90;;;16.79;62.61;100505.41;5008336;28;20064;-71
2022/06/03 05:15:26;;;;;;;2.10;1.42;;;16.60;78.10;;;16.80;64.45;100496.50;5016478;28;20060;-71
2022/06/03 05:18:28;;;;;;;1.70;1.60;;;16.60;78.80;;;16.84;64.07;100501.56;5015927;28;20096;-72
2022/06/03 05:21:35;;;;;;;1.77;1.40;;;16.60;78.90;;;16.89;66.14;100493.38;5016164;28;20502;-72
2022/06/03 05:24:38;;;;;;;1.92;1.33;;;16.70;78.50;;;16.96;63.44;100500.13;5015626;28;20513;-71
2022/06/03 05:27:34;;;;;;;3.42;1.88;;;16.70;78.70;;;17.00;65.02;100493.75;5017921;28;20045;-72
2022/06/03 05:30:20;;;;;;;5.28;1.33;;;16.70;78.50;;;17.04;62.77;100493.59;5015458;28;20068;-72
2022/06/03 05:33:41;;;;;;;3.03;1.42;;;16.80;78.00;;;17.13;62.43;100488.69;5016955;28;20051;-73
2022/06/03 05:36:47;;;;;;;3.42;1.58;;;16.90;77.90;;;17.23;62.22;100494.41;5015825;28;20054;-71
2022/06/03 05:39:51;;;;;;;4.90;1.90;;;17.00;78.00;;;17.27;62.26;100488.03;5013858;28;20056;-72
2022/06/03 05:42:36;;;;;;;4.18;1.77;;;17.00;77.80;;;17.36;63.16;100499.13;5018579;28;20053;-71
2022/06/03 05:45:51;;;;;;;3.25;1.25;;;17.00;78.20;;;17.38;61.49;100495.44;5015846;28;21246;-72
2022/06/03 05:48:25;;;;;;;3.15;1.55;;;17.10;77.40;;;17.42;60.86;100506.81;5034609;28;20497;-71
2022/06/03 05:51:34;;;;;;;3.72;1.45;;;17.20;77.00;;;17.52;60.59;100507.19;5016647;28;20033;-72
2022/06/03 05:54:29;;;;;;;3.63;1.38;;;17.20;77.30;;;17.64;60.72;100513.69;5017027;28;20068;-71
2022/06/03 05:57:48;;;;;;;2.88;1.80;;;17.30;77.20;;;17.72;60.56;100514.16;5013668;28;20060;-72
2022/06/03 06:00:39;;;;;;;3.85;2.08;;;17.40;77.00;;;17.79;59.02;100512.00;5013248;28;20064;-72
2022/06/03 06:03:44;;;;;;;1.73;1.42;;;17.50;76.40;;;17.87;58.98;100507.16;5030979;28;20056;-72
2022/06/03 06:06:19;;;;;;;3.30;1.70;;;17.60;76.40;;;17.93;59.91;100511.31;4994230;28;20204;-71
2022/06/03 06:08:51;;;;;;;1.75;1.35;;;17.60;76.60;;;17.97;60.07;100510.19;5035987;28;20464;-72
2022/06/03 06:11:30;;;;;;;2.92;1.65;;;17.60;76.40;;;18.03;59.14;100503.72;5028031;28;20155;-71
2022/06/03 06:14:28;;;;;;;2.58;1.52;;;17.70;76.10;;;18.08;60.83;100515.84;5012941;28;20049;-71
2022/06/03 06:17:10;;;;;;;2.75;1.40;;;17.80;76.60;;;18.13;59.44;100512.94;5016655;28;20045;-72
2022/06/03 06:19:56;;;;;;;5.03;1.60;;;17.80;76.10;;;18.22;61.27;100509.78;5016178;28;20045;-72
2022/06/03 06:22:31;;;;;;;3.45;1.45;;;17.90;77.00;;;18.27;59.77;100517.50;5013384;28;20099;-71
2022/06/03 06:25:10;;;;;;;2.40;1.38;;;18.00;76.50;;;18.34;61.92;100510.94;5008218;28;20045;-71
2022/06/03 06:27:57;;;;;;;1.88;1.50;;;18.00;77.00;;;18.45;59.45;100507.66;5016845;28;20136;-71
2022/06/03 06:30:49;;;;;;;4.10;1.20;;;18.10;76.20;;;18.47;58.65;100499.56;5015509;28;20080;-72
2022/06/03 06:33:45;;;;;;;3.15;1.25;;;18.10;76.10;;;18.52;59.54;100502.88;4999883;28;20045;-72
2022/06/03 06:37:18;;;;;;;2.00;1.30;;;18.20;76.10;;;18.59;60.38;100493.56;5015250;28;20225;-72
2022/06/03 06:39:57;;;;;;;1.85;1.30;;;18.30;76.30;;;18.67;59.60;100498.47;4991684;28;20054;-72
2022/06/03 06:42:51;;;;;;;1.75;1.35;;;18.30;76.60;;;18.73;59.08;100497.28;5018722;28;20047;-72
2022/06/03 06:45:37;;;;;;;2.30;1.38;;;18.40;75.90;;;18.79;60.47;100499.59;5013007;28;20128;-72
2022/06/03 06:48:40;;;;;;;2.13;1.50;;;18.40;76.30;;;18.88;60.68;100506.19;5018385;28;20132;-72
2022/06/03 06:51:46;;;;;;;3.35;1.40;;;18.50;76.50;;;18.93;60.45;100499.66;5016447;28;20050;-72
2022/06/03 06:54:41;;;;;;;2.20;1.30;;;18.60;76.40;;;18.98;60.70;100505.59;5014431;28;20065;-72
2022/06/03 06:57:21;;;;;;;2.28;1.55;;;18.70;76.50;;;19.07;59.67;100492.72;5013456;28;20582;-74
2022/06/03 06:59:58;;;;;;;2.47;1.63;;;18.70;76.10;;;19.15;60.56;100490.47;5019395;28;20759;-73
2022/06/03 07:02:52;;;;;;;2.97;1.80;;;18.80;76.40;;;19.22;61.02;100482.97;5019881;28;20569;-74
2022/06/03 07:05:51;;;;;;;1.92;1.58;;;18.90;76.40;;;19.34;60.47;100482.22;5021154;28;20037;-74
2022/06/03 07:08:26;;;;;;;3.88;2.30;;;19.00;76.40;;;19.45;60.64;100483.41;5022574;28;20144;-74
2022/06/03 07:10:55;;;;;;;2.40;1.25;;;19.00;76.50;;;19.50;60.37;100481.31;5023515;28;20041;-76
2022/06/03 07:13:34;;;;;;;3.15;1.38;;;19.20;76.40;;;19.56;61.06;100476.47;5026096;28;20045;-76
2022/06/03 07:16:10;;;;;;;1.52;1.42;;;19.20;76.60;;;19.64;60.15;100468.00;5039777;28;20509;-76
2022/06/03 07:22:19;;;;;;;5.47;1.95;;;19.40;76.20;;;19.82;59.94;100457.16;5023152;28;20074;-76
2022/06/03 07:25:06;;;;;;;9.40;2.47;;;19.50;76.10;;;19.97;60.06;100456.22;5024167;28;20049;-72
2022/06/03 07:27:43;;;;;;;4.07;2.30;;;19.60;76.20;;;20.05;60.14;100453.09;5016741;28;20046;-73
2022/06/03 07:30:22;;;;;;;4.70;2.70;;;19.60;76.10;;;20.15;58.88;100457.84;5029967;28;20045;-72
2022/06/03 07:33:04;;;;;;;3.25;2.08;;;19.70;75.80;;;20.24;60.64;100451.94;5005249;28;20060;-72
2022/06/03 07:35:47;;;;;;;3.50;1.70;;;19.80;76.50;;;20.30;60.80;100454.22;5021351;28;20099;-72
2022/06/03 07:38:28;;;;;;;5.32;2.75;;;19.90;76.40;;;20.44;59.63;100450.66;5024440;28;20117;-72
2022/06/03 07:41:09;;;;;;;;;;;20.00;76.20;;;20.54;60.32;100443.75;5025763;28;20038;-73
2022/06/03 07:44:15;;;;;;;4.75;1.80;;;20.10;76.40;;;20.63;59.86;100453.00;5039650;28;20678;-73
2022/06/03 07:47:00;;;;;;;2.75;2.10;;;20.20;76.30;;;20.73;59.57;100452.41;5021446;28;20164;-73
2022/06/03 07:49:36;;;;;;;3.05;2.13;;;20.30;76.40;;;20.83;59.66;100432.13;5022232;28;20053;-73
2022/06/03 07:52:27;;;;;;;3.58;1.95;;;20.40;76.30;;;20.91;59.39;100419.13;5016973;28;20589;-73
2022/06/03 07:54:56;;;;;;;2.72;1.92;;;20.50;76.30;;;20.99;60.20;100421.28;5035794;28;20053;-73
2022/06/03 07:57:28;;;;;;;3.70;2.13;;;20.60;76.30;;;21.05;59.53;100417.34;5019687;28;20041;-72
2022/06/03 08:00:03;;;;;;;1.85;1.52;;;20.70;75.90;;;21.13;59.21;100408.81;5018101;28;20045;-74
2022/06/03 08:02:31;;;;;;;4.05;1.98;;;20.70;75.90;;;21.20;60.38;100400.25;5006954;28;20049;-73
2022/06/03 08:05:07;;;;;;;2.05;1.85;;;20.80;76.20;;;21.35;61.42;100394.81;5027780;28;20033;-73
2022/06/03 08:13:19;;;;;;;2.50;2.28;;;21.10;77.80;;;21.66;61.86;100395.38;5018438;28;20041;-73
2022/06/03 08:16:05;;;;;;;5.63;2.75;;;21.10;77.30;;;21.78;61.05;100397.19;5036360;28;20037;-73
2022/06/03 08:18:43;;;;;;;2.88;2.00;;;21.30;76.90;;;21.87;61.14;100397.47;5019829;28;20479;-73
2022/06/03 08:21:32;;;;;;;6.40;2.03;;;21.40;77.00;;;21.95;62.26;100395.97;5013505;28;20098;-74
2022/06/03 08:24:02;;;;;;;3.00;1.97;;;21.40;77.30;;;22.02;62.50;100390.19;5018842;28;20045;-73
2022/06/03 08:26:32;;;;;;;2.83;1.88;;;21.60;77.10;;;22.02;60.99;100401.75;5012781;28;20037;-74
2022/06/03 08:29:17;;;;;;;5.13;2.22;;;21.60;76.70;;;22.15;60.69;100398.19;5020563;28;20096;-73
2022/06/03 08:31:46;;;;;;;1.90;1.70;;;21.70;76.80;;;22.28;58.57;100406.19;5017746;28;20075;-73
2022/06/03 08:34:50;;;;;;;4.82;2.22;;;21.70;76.00;;;22.34;60.06;100384.31;5021569;28;20051;-74
2022/06/03 08:37:31;;;;;;;4.65;2.13;;;21.90;76.50;;;22.38;61.32;100381.25;5012964;28;20045;-73
2022/06/03 08:40:02;;;;;;;3.53;2.08;;;21.90;76.60;;;22.54;60.81;100371.28;5004757;28;21551;-74
2022/06/03 08:42:52;;;;;;;4.22;2.03;;;22.00;76.90;;;22.63;60.98;100368.75;5020623;28;20041;-74
2022/06/03 08:45:56;;;;;;;2.97;2.20;;;22.10;76.70;;;22.71;62.81;100370.00;5019976;28;20067;-74
2022/06/03 08:48:40;;;;;;;3.78;2.05;;;22.20;77.20;;;22.79;59.02;100362.25;5020754;28;20473;-74
2022/06/03 08:51:41;;;;;;;2.10;1.90;;;22.30;76.00;;;22.88;59.16;100366.03;5034185;28;20128;-73
2022/06/03 08:54:17;;;;;;;4.22;2.35;;;22.40;75.90;;;22.94;59.51;100374.47;5033926;28;20072;-73
2022/06/03 08:56:49;;;;;;;3.28;2.28;;;22.40;76.10;;;23.00;59.75;100372.28;5020956;28;20041;-74
2022/06/03 08:59:36;;;;;;;3.00;2.50;;;22.50;76.40;;;23.08;62.10;100373.41;5017069;28;20080;-74
2022/06/03 09:02:33;;;;;;;3.90;2.10;;;22.60;77.10;;;23.19;61.19;100374.41;5019976;28;20483;-74
2022/06/03 09:05:40;;;;;;;3.05;2.05;;;22.60;76.80;;;23.30;60.76;100377.16;5020342;28;20041;-74
2022/06/03 09:08:51;;;;;;;3.20;2.13;;;22.80;76.60;;;23.43;62.49;100373.53;5008395;28;20061;-73
2022/06/03 09:11:37;;;;;;;4.38;2.35;;;22.80;77.60;;;23.40;62.71;100360.31;5017811;28;20111;-73
2022/06/03 09:14:12;;;;;;;2.90;1.90;;;22.90;77.10;;;23.46;56.45;100365.22;5011174;28;20053;-73
2022/06/03 09:16:40;;;;;;;4.65;2.50;;;23.00;75.10;;;23.55;59.63;100359.13;5017035;28;20051;-74
2022/06/03 09:19:23;;;;;;;2.80;2.20;;;23.00;76.10;;;23.57;56.43;100359.88;5032647;28;20049;-73
2022/06/03 09:21:54;;;;;;;3.13;2.10;;;23.10;75.00;;;23.67;60.67;100351.06;5014675;28;20056;-73
2022/06/03 09:24:33;;;;;;;5.72;2.45;;;23.10;76.20;;;23.79;61.76;100358.16;5001076;28;20121;-75
2022/06/03 09:27:04;;;;;;;2.80;2.15;;;23.20;76.80;;;23.90;60.41;100349.22;5008953;28;20526;-73
2022/06/03 09:29:31;;;;;;;6.03;3.25;;;23.30;77.00;;;23.94;58.83;100345.28;5032893;28;20129;-74
2022/06/03 09:32:03;;;;;;;13.43;7.15;;;23.40;76.10;;;24.07;58.42;100337.97;5015785;28;20735;-74
2022/06/03 09:34:50;;;;;;;6.13;2.28;;;23.50;75.70;;;24.21;59.82;100339.56;5032737;28;20061;-74
2022/06/03 09:37:50;;;;;;;3.42;2.47;;;23.60;76.30;;;24.26;59.17;100324.88;5017238;28;20045;-73
2022/06/03 09:40:29;;;;;;;5.65;3.58;;;23.70;76.20;;;24.29;54.89;100322.78;5015749;28;20068;-73
2022/06/03 09:43:20;;;;;;;8.07;3.47;;;23.80;74.80;;;24.41;61.61;100317.34;5020406;28;20045;-74
2022/06/03 09:45:52;;;;;;;3.38;2.47;;;23.90;76.60;;;24.46;60.98;100316.00;5019823;28;20051;-74
2022/06/03 09:48:26;;;;;;;4.70;2.35;;;23.90;76.30;;;24.61;60.60;100313.00;5023502;28;20055;-76
2022/06/03 09:50:57;;;;;;;8.00;3.63;;;24.10;76.40;;;24.70;59.11;100322.97;4976738;28;20123;-79
2022/06/03 09:53:30;;;;;;;4.22;2.40;;;24.20;75.80;;;24.87;59.57;100324.25;4987222;28;20053;-77
2022/06/03 09:56:04;;;;;;;4.53;2.50;;;24.30;75.90;;;25.00;56.35;100315.13;5032525;28;20060;-77
2022/06/03 09:58:33;;;;;;;3.67;2.50;;;24.40;75.20;;;25.16;55.31;100320.88;4985235;28;20071;-79
2022/06/03 10:01:03;;;;;;;2.97;2.25;;;24.60;75.00;;;25.43;55.50;100324.84;4987251;28;20140;-80
2022/06/03 10:03:32;;;;;;;4.22;2.28;;;24.70;75.10;;;25.70;53.21;100336.91;5001393;28;20140;-78
2022/06/03 10:05:59;;;;;;;6.90;2.83;;;24.90;74.20;;;25.72;53.32;100343.00;4987031;28;20077;-80
2022/06/03 10:14:05;;;;;;;3.35;2.17;;;25.40;74.80;;;26.15;52.15;100338.28;5009863;28;20065;-79
2022/06/03 10:16:32;;;;;;;8.20;2.88;;;25.60;73.50;;;26.07;51.92;100342.69;4990683;28;20049;-79
2022/06/03 10:19:00;;;;;;;4.97;2.50;;;25.60;72.60;;;26.01;52.83;100341.38;4976329;28;20423;-79
2022/06/03 10:21:30;;;;;;;3.92;2.40;;;25.70;72.90;;;26.09;52.36;100336.16;5024685;28;20064;-78
2022/06/03 10:24:05;;;;;;;2.67;2.28;;;25.70;72.80;;;26.16;51.80;100339.16;5004890;28;20049;-79
2022/06/03 10:26:52;;;;;;;4.78;2.58;;;25.70;72.30;;;26.31;50.75;100337.78;5017381;28;20041;-78
2022/06/03 10:29:25;;;;;;;11.32;5.15;;;25.80;71.90;;;26.43;50.92;100338.50;5017689;28;20041;-79
2022/06/03 10:32:02;;;;;;;2.42;2.22;;;25.90;72.00;;;26.74;49.39;100340.19;5011756;28;20041;-78
2022/06/03 10:34:40;;;;;;;2.10;1.80;;;26.10;72.20;;;26.85;47.93;100337.34;5018565;28;20065;-78
2022/06/03 10:37:11;;;;;;;4.70;2.47;;;26.20;70.90;;;26.96;46.80;100339.06;5009427;28;20046;-78
2022/06/03 10:39:43;;;;;;;3.42;2.25;;;26.40;70.00;;;27.06;46.65;100339.03;5024922;28;20124;-78
2022/06/03 10:42:21;;;;;;;9.50;4.38;;;26.50;69.70;;;27.04;46.48;100332.94;5024170;28;20049;-78
2022/06/03 10:44:55;;;;;;;5.18;2.75;;;26.60;69.30;;;26.92;46.70;100334.97;5024743;28;20076;-79
2022/06/03 10:47:34;;;;;;;3.60;2.60;;;26.60;69.00;;;27.08;47.61;100333.50;5029455;28;20132;-77
2022/06/03 10:50:27;;;;;;;5.43;2.78;;;26.60;69.60;;;27.26;46.54;100333.59;5009543;28;20474;-78
2022/06/03 11:01:59;;;;;;;5.03;2.45;;;27.10;68.70;;;27.67;45.40;100309.00;5023098;28;20059;-79
2022/06/03 11:04:38;;;;;;;6.43;2.83;;;27.10;68.00;;;27.67;44.56;100303.63;5025555;28;20041;-79
2022/06/03 11:07:30;;;;;;;3.55;2.45;;;27.20;67.40;;;27.75;46.05;100306.41;5025357;28;20128;-79
2022/06/03 11:10:15;;;;;;;3.67;2.28;;;27.30;68.10;;;27.83;45.70;100301.09;5031282;28;20036;-78
2022/06/03 11:13:08;;;;;;;2.83;2.35;;;27.40;67.90;;;27.87;44.00;100310.59;5029070;28;20041;-78
2022/06/03 11:15:44;;;;;;;3.15;2.22;;;27.40;66.80;;;28.05;45.21;100311.63;5021790;28;20055;-80
2022/06/03 11:18:38;;;;;;;3.88;2.13;;;27.50;67.70;;;28.27;42.98;100313.91;5041587;28;20061;-79
2022/06/03 11:21:29;;;;;;;2.75;2.40;;;27.60;66.30;;;28.31;42.25;100309.06;5042576;28;20061;-79
2022/06/03 11:23:59;;;;;;;4.30;2.25;;;27.80;65.50;;;28.22;44.14;100294.59;5016117;28;20046;-80
2022/06/03 11:26:43;;;;;;;4.97;2.47;;;27.80;66.80;;;28.29;44.94;100294.84;5028601;28;20421;-79
2022/06/03 11:29:32;;;;;;;3.40;2.55;;;27.80;67.00;;;28.30;44.18;100278.44;5029241;28;20099;-79
2022/06/03 11:32:02;;;;;;;4.88;2.40;;;27.80;66.70;;;28.20;43.83;100274.97;5029955;28;20038;-78
2022/06/03 11:34:54;;;;;;;4.25;2.33;;;27.80;65.80;;;28.18;43.70;100277.00;5031378;28;20451;-79
2022/06/03 11:37:48;;;;;;;3.42;2.47;;;27.80;65.70;;;28.14;42.86;100271.00;5025638;28;20065;-78
2022/06/03 11:40:27;;;;;;;5.00;2.65;;;27.80;65.50;;;28.20;44.09;100266.00;5021166;28;20139;-78
2022/06/03 11:43:16;;;;;;;3.92;2.13;;;27.80;65.60;;;28.06;43.66;100261.97;5005544;28;20095;-77
2022/06/03 11:46:18;;;;;;;5.85;2.63;;;28.40;65.70;;;28.24;45.19;100246.63;5025982;28;20048;-75
2022/06/03 11:48:49;;;;;;;3.60;2.67;;;27.70;66.30;;;28.51;44.25;100242.09;5010391;28;20049;-73
2022/06/03 11:51:17;;;;;;;6.53;2.60;;;27.80;66.20;;;28.73;43.61;100237.16;5017827;28;20170;-74
2022/06/03 11:53:48;;;;;;;4.85;2.22;;;28.00;66.10;;;28.82;42.71;100225.44;4999856;28;20132;-76
2022/06/03 11:56:25;;;;;;;4.13;2.50;;;28.20;65.30;;;28.80;42.48;100218.44;5018273;28;20059;-74
2022/06/03 11:59:35;;;;;;;3.78;2.70;;;28.30;65.00;;;28.99;40.54;100230.94;5009203;28;20634;-75
2022/06/03 12:02:34;;;;;;;5.93;2.50;;;28.40;63.60;;;29.10;40.08;100225.22;5017313;28;20187;-75
2022/06/03 12:05:08;;;;;;;4.22;2.00;;;28.60;62.90;;;29.29;40.23;100232.25;5019695;28;20498;-75
2022/06/03 12:08:23;;;;;;;6.57;2.65;;;28.70;63.30;;;29.55;39.93;100230.50;5011775;28;20049;-75
2022/06/03 12:10:53;;;;;;;4.57;2.33;;;28.80;62.70;;;29.58;40.23;100231.03;5018888;28;20068;-75
2022/06/03 12:13:30;;;;;;;4.63;2.22;;;28.90;63.10;;;29.77;40.54;100225.50;5019817;28;20520;-76
2022/06/03 12:16:13;;;;;;;5.63;2.50;;;29.10;63.40;;;30.01;39.78;100224.69;5021651;28;21153;-76